sensor_id;sensor_type;location;lat;lon;timestamp;P1;durP1;ratioP1;P2;durP2;ratioP2
24801;SDS011;12898;50.520;12.152;2023-07-29T00:00:42;1.75;;;1.30;;
24801;SDS011;12898;50.520;12.152;2023-07-29T00:03:09;3.28;;;1.25;;
24801;SDS011;12898;50.520;12.152;2023-07-29T00:05:36;3.28;;;1.50;;
24801;SDS011;12898;50.520;12.152;2023-07-29T00:08:02;2.60;;;1.40;;
24801;SDS011;12898;50.520;12.152;2023-07-29T00:10:28;2.35;;;1.50;;
24801;SDS011;12898;50.520;12.152;2023-07-29T00:12:56;1.10;;;1.00;;
24801;SDS011;12898;50.520;12.152;2023-07-29T00:15:22;1.98;;;1.45;;
24801;SDS011;12898;50.520;12.152;2023-07-29T00:17:48;3.63;;;1.33;;
24801;SDS011;12898;50.520;12.152;2023-07-29T00:20:13;4.60;;;1.40;;
24801;SDS011;12898;50.520;12.152;2023-07-29T00:22:40;1.20;;;1.10;;
24801;SDS011;12898;50.520;12.152;2023-07-29T00:25:06;3.67;;;1.27;;
24801;SDS011;12898;50.520;12.152;2023-07-29T00:27:32;1.63;;;1.30;;
24801;SDS011;12898;50.520;12.152;2023-07-29T00:29:58;1.20;;;1.10;;
24801;SDS011;12898;50.520;12.152;2023-07-29T00:32:24;1.08;;;0.98;;
24801;SDS011;12898;50.520;12.152;2023-07-29T00:34:50;1.35;;;1.20;;
24801;SDS011;12898;50.520;12.152;2023-07-29T00:37:16;2.45;;;1.13;;
24801;SDS011;12898;50.520;12.152;2023-07-29T00:39:41;1.70;;;1.13;;
24801;SDS011;12898;50.520;12.152;2023-07-29T00:42:08;1.23;;;1.13;;
24801;SDS011;12898;50.520;12.152;2023-07-29T00:44:34;1.35;;;1.25;;
24801;SDS011;12898;50.520;12.152;2023-07-29T00:47:00;3.45;;;1.20;;
24801;SDS011;12898;50.520;12.152;2023-07-29T00:49:28;1.13;;;1.02;;
24801;SDS011;12898;50.520;12.152;2023-07-29T00:51:54;1.08;;;0.95;;
24801;SDS011;12898;50.520;12.152;2023-07-29T00:54:19;1.25;;;0.85;;
24801;SDS011;12898;50.520;12.152;2023-07-29T00:56:45;2.53;;;1.15;;
24801;SDS011;12898;50.520;12.152;2023-07-29T00:59:11;1.52;;;1.33;;
24801;SDS011;12898;50.520;12.152;2023-07-29T01:01:38;1.70;;;0.98;;
24801;SDS011;12898;50.520;12.152;2023-07-29T01:04:04;1.42;;;1.20;;
24801;SDS011;12898;50.520;12.152;2023-07-29T01:06:34;1.48;;;1.23;;
24801;SDS011;12898;50.520;12.152;2023-07-29T01:09:14;1.20;;;1.10;;
24801;SDS011;12898;50.520;12.152;2023-07-29T01:12:09;1.70;;;1.20;;
24801;SDS011;12898;50.520;12.152;2023-07-29T01:14:55;1.60;;;1.00;;
24801;SDS011;12898;50.520;12.152;2023-07-29T01:18:15;1.13;;;1.02;;
24801;SDS011;12898;50.520;12.152;2023-07-29T01:20:37;1.52;;;1.20;;
24801;SDS011;12898;50.520;12.152;2023-07-29T01:23:07;1.98;;;1.30;;
24801;SDS011;12898;50.520;12.152;2023-07-29T01:25:32;2.83;;;1.20;;
24801;SDS011;12898;50.520;12.152;2023-07-29T01:27:58;1.33;;;1.00;;
24801;SDS011;12898;50.520;12.152;2023-07-29T01:30:26;3.58;;;1.02;;
24801;SDS011;12898;50.520;12.152;2023-07-29T01:38:14;1.20;;;1.10;;
24801;SDS011;12898;50.520;12.152;2023-07-29T01:40:45;1.92;;;1.27;;
24801;SDS011;12898;50.520;12.152;2023-07-29T01:43:14;2.22;;;1.50;;
24801;SDS011;12898;50.520;12.152;2023-07-29T01:45:40;2.40;;;1.40;;
24801;SDS011;12898;50.520;12.152;2023-07-29T01:48:05;1.50;;;1.17;;
24801;SDS011;12898;50.520;12.152;2023-07-29T01:50:32;2.70;;;1.40;;
24801;SDS011;12898;50.520;12.152;2023-07-29T01:52:58;2.97;;;1.40;;
24801;SDS011;12898;50.520;12.152;2023-07-29T01:55:24;1.58;;;1.48;;
24801;SDS011;12898;50.520;12.152;2023-07-29T01:57:50;3.72;;;1.40;;
24801;SDS011;12898;50.520;12.152;2023-07-29T02:00:16;1.92;;;1.50;;
24801;SDS011;12898;50.520;12.152;2023-07-29T02:02:43;1.95;;;1.52;;
24801;SDS011;12898;50.520;12.152;2023-07-29T02:05:09;3.35;;;1.40;;
24801;SDS011;12898;50.520;12.152;2023-07-29T02:07:35;6.10;;;1.55;;
24801;SDS011;12898;50.520;12.152;2023-07-29T02:10:00;2.47;;;1.33;;
24801;SDS011;12898;50.520;12.152;2023-07-29T02:12:26;1.75;;;1.58;;
24801;SDS011;12898;50.520;12.152;2023-07-29T02:14:52;1.63;;;1.48;;
24801;SDS011;12898;50.520;12.152;2023-07-29T02:17:17;2.13;;;1.50;;
24801;SDS011;12898;50.520;12.152;2023-07-29T02:19:43;2.00;;;1.80;;
24801;SDS011;12898;50.520;12.152;2023-07-29T02:22:10;2.65;;;1.67;;
24801;SDS011;12898;50.520;12.152;2023-07-29T02:24:39;2.45;;;1.52;;
24801;SDS011;12898;50.520;12.152;2023-07-29T02:27:04;2.03;;;1.60;;
24801;SDS011;12898;50.520;12.152;2023-07-29T02:29:30;3.17;;;1.70;;
24801;SDS011;12898;50.520;12.152;2023-07-29T02:31:57;2.38;;;1.75;;
24801;SDS011;12898;50.520;12.152;2023-07-29T02:34:24;2.90;;;1.58;;
24801;SDS011;12898;50.520;12.152;2023-07-29T02:36:50;5.20;;;1.90;;
24801;SDS011;12898;50.520;12.152;2023-07-29T02:39:15;3.22;;;1.73;;
24801;SDS011;12898;50.520;12.152;2023-07-29T02:41:41;2.22;;;1.80;;
24801;SDS011;12898;50.520;12.152;2023-07-29T02:44:07;3.88;;;2.08;;
24801;SDS011;12898;50.520;12.152;2023-07-29T02:46:32;5.35;;;2.13;;
24801;SDS011;12898;50.520;12.152;2023-07-29T02:48:58;3.88;;;1.65;;
24801;SDS011;12898;50.520;12.152;2023-07-29T02:51:24;3.47;;;1.90;;
24801;SDS011;12898;50.520;12.152;2023-07-29T02:53:49;2.90;;;2.08;;
24801;SDS011;12898;50.520;12.152;2023-07-29T02:56:15;3.00;;;1.88;;
24801;SDS011;12898;50.520;12.152;2023-07-29T02:58:41;3.72;;;1.98;;
24801;SDS011;12898;50.520;12.152;2023-07-29T03:01:07;8.63;;;2.20;;
24801;SDS011;12898;50.520;12.152;2023-07-29T03:03:32;5.43;;;2.45;;
24801;SDS011;12898;50.520;12.152;2023-07-29T03:05:59;5.43;;;2.67;;
24801;SDS011;12898;50.520;12.152;2023-07-29T03:08:33;3.58;;;2.25;;
24801;SDS011;12898;50.520;12.152;2023-07-29T03:11:04;3.25;;;2.33;;
24801;SDS011;12898;50.520;12.152;2023-07-29T03:13:35;4.43;;;2.45;;
24801;SDS011;12898;50.520;12.152;2023-07-29T03:18:35;4.15;;;2.10;;
24801;SDS011;12898;50.520;12.152;2023-07-29T03:21:01;4.05;;;2.58;;
24801;SDS011;12898;50.520;12.152;2023-07-29T03:23:28;3.08;;;2.40;;
24801;SDS011;12898;50.520;12.152;2023-07-29T03:25:55;4.00;;;2.25;;
24801;SDS011;12898;50.520;12.152;2023-07-29T03:28:27;4.68;;;2.65;;
24801;SDS011;12898;50.520;12.152;2023-07-29T03:30:55;3.83;;;2.45;;
24801;SDS011;12898;50.520;12.152;2023-07-29T03:33:21;3.58;;;2.45;;
24801;SDS011;12898;50.520;12.152;2023-07-29T03:35:47;4.65;;;2.70;;
24801;SDS011;12898;50.520;12.152;2023-07-29T03:38:14;3.28;;;2.65;;
24801;SDS011;12898;50.520;12.152;2023-07-29T03:40:40;5.35;;;2.55;;
24801;SDS011;12898;50.520;12.152;2023-07-29T03:43:06;2.58;;;2.38;;
24801;SDS011;12898;50.520;12.152;2023-07-29T03:45:32;5.32;;;2.40;;
24801;SDS011;12898;50.520;12.152;2023-07-29T03:47:58;3.42;;;2.78;;
24801;SDS011;12898;50.520;12.152;2023-07-29T03:50:23;4.35;;;2.25;;
24801;SDS011;12898;50.520;12.152;2023-07-29T03:52:49;2.78;;;2.50;;
24801;SDS011;12898;50.520;12.152;2023-07-29T03:55:15;3.08;;;2.70;;
24801;SDS011;12898;50.520;12.152;2023-07-29T03:57:41;5.40;;;2.70;;
24801;SDS011;12898;50.520;12.152;2023-07-29T04:00:07;3.42;;;2.70;;
24801;SDS011;12898;50.520;12.152;2023-07-29T04:02:34;3.97;;;2.40;;
24801;SDS011;12898;50.520;12.152;2023-07-29T04:05:02;4.20;;;2.50;;
24801;SDS011;12898;50.520;12.152;2023-07-29T04:07:30;3.28;;;2.70;;
24801;SDS011;12898;50.520;12.152;2023-07-29T04:09:56;3.83;;;2.58;;
24801;SDS011;12898;50.520;12.152;2023-07-29T04:12:22;3.25;;;2.58;;
24801;SDS011;12898;50.520;12.152;2023-07-29T04:14:48;6.50;;;2.78;;
24801;SDS011;12898;50.520;12.152;2023-07-29T04:17:14;5.30;;;2.45;;
24801;SDS011;12898;50.520;12.152;2023-07-29T04:19:40;3.70;;;2.70;;
24801;SDS011;12898;50.520;12.152;2023-07-29T04:22:06;2.72;;;2.47;;
24801;SDS011;12898;50.520;12.152;2023-07-29T04:24:31;3.13;;;2.60;;
24801;SDS011;12898;50.520;12.152;2023-07-29T04:26:57;4.03;;;2.50;;
24801;SDS011;12898;50.520;12.152;2023-07-29T04:29:23;3.22;;;2.33;;
24801;SDS011;12898;50.520;12.152;2023-07-29T04:31:49;4.50;;;2.75;;
24801;SDS011;12898;50.520;12.152;2023-07-29T04:34:16;2.60;;;2.10;;
24801;SDS011;12898;50.520;12.152;2023-07-29T04:36:43;3.90;;;2.75;;
24801;SDS011;12898;50.520;12.152;2023-07-29T04:39:10;2.90;;;2.22;;
24801;SDS011;12898;50.520;12.152;2023-07-29T04:41:36;5.45;;;2.45;;
24801;SDS011;12898;50.520;12.152;2023-07-29T04:44:01;4.25;;;2.50;;
24801;SDS011;12898;50.520;12.152;2023-07-29T04:46:27;4.22;;;2.47;;
24801;SDS011;12898;50.520;12.152;2023-07-29T04:48:53;4.22;;;2.40;;
24801;SDS011;12898;50.520;12.152;2023-07-29T04:51:18;4.07;;;2.38;;
24801;SDS011;12898;50.520;12.152;2023-07-29T04:53:44;3.72;;;2.42;;
24801;SDS011;12898;50.520;12.152;2023-07-29T04:56:10;6.45;;;2.55;;
24801;SDS011;12898;50.520;12.152;2023-07-29T04:58:36;2.25;;;2.05;;
24801;SDS011;12898;50.520;12.152;2023-07-29T05:01:02;4.22;;;2.33;;
24801;SDS011;12898;50.520;12.152;2023-07-29T05:03:28;2.72;;;2.20;;
24801;SDS011;12898;50.520;12.152;2023-07-29T05:05:54;6.60;;;2.17;;
24801;SDS011;12898;50.520;12.152;2023-07-29T05:08:21;6.65;;;2.28;;
24801;SDS011;12898;50.520;12.152;2023-07-29T05:10:50;5.07;;;2.03;;
24801;SDS011;12898;50.520;12.152;2023-07-29T05:13:17;2.30;;;2.10;;
24801;SDS011;12898;50.520;12.152;2023-07-29T05:15:43;4.07;;;2.30;;
24801;SDS011;12898;50.520;12.152;2023-07-29T05:18:10;4.57;;;2.25;;
24801;SDS011;12898;50.520;12.152;2023-07-29T05:20:36;2.72;;;2.08;;
24801;SDS011;12898;50.520;12.152;2023-07-29T05:23:02;2.47;;;2.00;;
24801;SDS011;12898;50.520;12.152;2023-07-29T05:25:28;3.42;;;1.85;;
24801;SDS011;12898;50.520;12.152;2023-07-29T05:27:54;2.55;;;2.20;;
24801;SDS011;12898;50.520;12.152;2023-07-29T05:30:20;4.95;;;2.20;;
24801;SDS011;12898;50.520;12.152;2023-07-29T05:32:45;2.75;;;1.90;;
24801;SDS011;12898;50.520;12.152;2023-07-29T05:35:11;2.95;;;1.98;;
24801;SDS011;12898;50.520;12.152;2023-07-29T05:37:38;3.78;;;1.80;;
24801;SDS011;12898;50.520;12.152;2023-07-29T05:40:07;3.90;;;1.80;;
24801;SDS011;12898;50.520;12.152;2023-07-29T05:42:36;2.80;;;1.98;;
24801;SDS011;12898;50.520;12.152;2023-07-29T05:45:01;2.28;;;1.63;;
24801;SDS011;12898;50.520;12.152;2023-07-29T05:47:27;1.48;;;1.38;;
24801;SDS011;12898;50.520;12.152;2023-07-29T05:49:53;1.58;;;1.48;;
24801;SDS011;12898;50.520;12.152;2023-07-29T05:52:19;2.38;;;1.65;;
24801;SDS011;12898;50.520;12.152;2023-07-29T05:54:45;4.22;;;1.80;;
24801;SDS011;12898;50.520;12.152;2023-07-29T05:57:11;2.70;;;1.70;;
24801;SDS011;12898;50.520;12.152;2023-07-29T05:59:37;5.05;;;2.00;;
24801;SDS011;12898;50.520;12.152;2023-07-29T06:02:03;2.95;;;1.67;;
24801;SDS011;12898;50.520;12.152;2023-07-29T06:04:29;2.85;;;1.60;;
24801;SDS011;12898;50.520;12.152;2023-07-29T06:06:55;1.80;;;1.55;;
24801;SDS011;12898;50.520;12.152;2023-07-29T06:09:21;5.22;;;1.73;;
24801;SDS011;12898;50.520;12.152;2023-07-29T06:11:48;2.97;;;2.38;;
24801;SDS011;12898;50.520;12.152;2023-07-29T06:14:14;2.58;;;1.80;;
24801;SDS011;12898;50.520;12.152;2023-07-29T06:16:40;4.35;;;1.90;;
24801;SDS011;12898;50.520;12.152;2023-07-29T06:19:05;4.05;;;1.90;;
24801;SDS011;12898;50.520;12.152;2023-07-29T06:21:33;2.35;;;2.10;;
24801;SDS011;12898;50.520;12.152;2023-07-29T06:23:59;3.88;;;2.28;;
24801;SDS011;12898;50.520;12.152;2023-07-29T06:26:25;2.28;;;1.80;;
24801;SDS011;12898;50.520;12.152;2023-07-29T06:28:51;3.15;;;2.00;;
24801;SDS011;12898;50.520;12.152;2023-07-29T06:31:16;3.03;;;2.08;;
24801;SDS011;12898;50.520;12.152;2023-07-29T06:33:42;3.67;;;2.10;;
24801;SDS011;12898;50.520;12.152;2023-07-29T06:36:08;2.10;;;1.90;;
24801;SDS011;12898;50.520;12.152;2023-07-29T06:38:33;4.82;;;2.10;;
24801;SDS011;12898;50.520;12.152;2023-07-29T06:40:59;3.30;;;2.10;;
24801;SDS011;12898;50.520;12.152;2023-07-29T06:43:25;6.82;;;2.10;;
24801;SDS011;12898;50.520;12.152;2023-07-29T06:45:50;2.10;;;1.90;;
24801;SDS011;12898;50.520;12.152;2023-07-29T06:48:16;4.15;;;1.90;;
24801;SDS011;12898;50.520;12.152;2023-07-29T06:50:43;2.42;;;2.10;;
24801;SDS011;12898;50.520;12.152;2023-07-29T06:53:09;3.40;;;2.10;;
24801;SDS011;12898;50.520;12.152;2023-07-29T06:55:35;4.63;;;2.20;;
24801;SDS011;12898;50.520;12.152;2023-07-29T06:58:01;4.88;;;1.98;;
24801;SDS011;12898;50.520;12.152;2023-07-29T07:00:27;2.60;;;2.10;;
24801;SDS011;12898;50.520;12.152;2023-07-29T07:02:52;2.45;;;2.15;;
24801;SDS011;12898;50.520;12.152;2023-07-29T07:05:18;2.80;;;2.15;;
24801;SDS011;12898;50.520;12.152;2023-07-29T07:07:43;3.10;;;2.40;;
24801;SDS011;12898;50.520;12.152;2023-07-29T07:10:09;3.25;;;2.28;;
24801;SDS011;12898;50.520;12.152;2023-07-29T07:12:35;3.00;;;2.47;;
24801;SDS011;12898;50.520;12.152;2023-07-29T07:15:01;5.38;;;2.65;;
24801;SDS011;12898;50.520;12.152;2023-07-29T07:17:27;3.00;;;2.22;;
24801;SDS011;12898;50.520;12.152;2023-07-29T07:19:52;4.72;;;2.55;;
24801;SDS011;12898;50.520;12.152;2023-07-29T07:22:18;2.67;;;2.28;;
24801;SDS011;12898;50.520;12.152;2023-07-29T07:24:44;2.72;;;2.35;;
24801;SDS011;12898;50.520;12.152;2023-07-29T07:27:09;3.13;;;2.03;;
24801;SDS011;12898;50.520;12.152;2023-07-29T07:29:35;2.75;;;2.20;;
24801;SDS011;12898;50.520;12.152;2023-07-29T07:32:01;3.90;;;2.35;;
24801;SDS011;12898;50.520;12.152;2023-07-29T07:34:27;3.67;;;1.98;;
24801;SDS011;12898;50.520;12.152;2023-07-29T07:36:53;2.92;;;2.10;;
24801;SDS011;12898;50.520;12.152;2023-07-29T07:39:18;3.55;;;2.20;;
24801;SDS011;12898;50.520;12.152;2023-07-29T07:41:44;3.15;;;1.70;;
24801;SDS011;12898;50.520;12.152;2023-07-29T07:44:10;2.10;;;1.90;;
24801;SDS011;12898;50.520;12.152;2023-07-29T07:46:40;6.03;;;1.80;;
24801;SDS011;12898;50.520;12.152;2023-07-29T07:49:06;3.25;;;2.00;;
24801;SDS011;12898;50.520;12.152;2023-07-29T07:51:32;2.65;;;1.65;;
24801;SDS011;12898;50.520;12.152;2023-07-29T07:53:57;1.58;;;1.48;;
24801;SDS011;12898;50.520;12.152;2023-07-29T07:56:23;1.90;;;1.75;;
24801;SDS011;12898;50.520;12.152;2023-07-29T07:58:49;2.17;;;1.45;;
24801;SDS011;12898;50.520;12.152;2023-07-29T08:01:14;1.65;;;1.55;;
24801;SDS011;12898;50.520;12.152;2023-07-29T08:03:40;1.98;;;1.35;;
24801;SDS011;12898;50.520;12.152;2023-07-29T08:06:06;1.58;;;1.40;;
24801;SDS011;12898;50.520;12.152;2023-07-29T08:08:31;1.77;;;1.38;;
24801;SDS011;12898;50.520;12.152;2023-07-29T08:10:57;2.13;;;1.40;;
24801;SDS011;12898;50.520;12.152;2023-07-29T08:13:23;1.92;;;1.20;;
24801;SDS011;12898;50.520;12.152;2023-07-29T08:15:51;2.15;;;1.20;;
24801;SDS011;12898;50.520;12.152;2023-07-29T08:18:18;1.70;;;1.20;;
24801;SDS011;12898;50.520;12.152;2023-07-29T08:20:51;1.10;;;0.93;;
24801;SDS011;12898;50.520;12.152;2023-07-29T08:23:23;3.72;;;1.42;;
24801;SDS011;12898;50.520;12.152;2023-07-29T08:25:51;2.08;;;1.13;;
24801;SDS011;12898;50.520;12.152;2023-07-29T08:28:26;2.72;;;1.13;;
24801;SDS011;12898;50.520;12.152;2023-07-29T08:31:00;3.13;;;1.40;;
24801;SDS011;12898;50.520;12.152;2023-07-29T08:33:26;1.10;;;1.00;;
24801;SDS011;12898;50.520;12.152;2023-07-29T08:35:52;3.63;;;1.10;;
24801;SDS011;12898;50.520;12.152;2023-07-29T08:38:18;0.98;;;0.88;;
24801;SDS011;12898;50.520;12.152;2023-07-29T08:40:45;2.22;;;1.30;;
24801;SDS011;12898;50.520;12.152;2023-07-29T08:44:00;1.10;;;1.00;;
24801;SDS011;12898;50.520;12.152;2023-07-29T08:46:35;2.45;;;1.08;;
24801;SDS011;12898;50.520;12.152;2023-07-29T08:49:01;2.28;;;1.20;;
24801;SDS011;12898;50.520;12.152;2023-07-29T08:51:27;0.98;;;0.80;;
24801;SDS011;12898;50.520;12.152;2023-07-29T08:53:56;1.77;;;1.10;;
24801;SDS011;12898;50.520;12.152;2023-07-29T08:56:24;1.40;;;0.93;;
24801;SDS011;12898;50.520;12.152;2023-07-29T08:58:50;1.65;;;1.10;;
24801;SDS011;12898;50.520;12.152;2023-07-29T09:01:16;2.22;;;1.27;;
24801;SDS011;12898;50.520;12.152;2023-07-29T09:03:42;1.30;;;1.13;;
24801;SDS011;12898;50.520;12.152;2023-07-29T09:06:08;1.48;;;1.25;;
24801;SDS011;12898;50.520;12.152;2023-07-29T09:08:34;1.40;;;1.30;;
24801;SDS011;12898;50.520;12.152;2023-07-29T09:11:00;2.58;;;1.20;;
24801;SDS011;12898;50.520;12.152;2023-07-29T09:13:26;1.40;;;1.25;;
24801;SDS011;12898;50.520;12.152;2023-07-29T09:15:55;2.97;;;1.17;;
24801;SDS011;12898;50.520;12.152;2023-07-29T09:18:22;1.45;;;1.23;;
24801;SDS011;12898;50.520;12.152;2023-07-29T09:20:50;2.97;;;1.70;;
24801;SDS011;12898;50.520;12.152;2023-07-29T09:23:17;2.78;;;1.40;;
24801;SDS011;12898;50.520;12.152;2023-07-29T09:25:43;2.15;;;1.40;;
24801;SDS011;12898;50.520;12.152;2023-07-29T09:28:15;3.17;;;1.02;;
24801;SDS011;12898;50.520;12.152;2023-07-29T09:30:42;1.85;;;1.08;;
24801;SDS011;12898;50.520;12.152;2023-07-29T09:33:11;2.90;;;1.00;;
24801;SDS011;12898;50.520;12.152;2023-07-29T09:35:37;1.83;;;1.10;;
24801;SDS011;12898;50.520;12.152;2023-07-29T09:38:04;1.25;;;1.13;;
24801;SDS011;12898;50.520;12.152;2023-07-29T09:40:34;2.83;;;1.25;;
24801;SDS011;12898;50.520;12.152;2023-07-29T09:43:05;4.15;;;2.13;;
24801;SDS011;12898;50.520;12.152;2023-07-29T09:45:34;1.55;;;1.25;;
24801;SDS011;12898;50.520;12.152;2023-07-29T09:48:02;1.95;;;1.33;;
24801;SDS011;12898;50.520;12.152;2023-07-29T09:50:30;3.67;;;1.77;;
24801;SDS011;12898;50.520;12.152;2023-07-29T09:52:56;2.30;;;1.50;;
24801;SDS011;12898;50.520;12.152;2023-07-29T09:55:25;3.22;;;1.70;;
24801;SDS011;12898;50.520;12.152;2023-07-29T09:57:53;1.88;;;1.60;;
24801;SDS011;12898;50.520;12.152;2023-07-29T10:00:25;3.10;;;1.70;;
24801;SDS011;12898;50.520;12.152;2023-07-29T10:02:51;2.33;;;1.45;;
24801;SDS011;12898;50.520;12.152;2023-07-29T10:05:18;4.82;;;1.70;;
24801;SDS011;12898;50.520;12.152;2023-07-29T10:07:45;3.63;;;1.85;;
24801;SDS011;12898;50.520;12.152;2023-07-29T10:10:12;4.97;;;1.80;;
24801;SDS011;12898;50.520;12.152;2023-07-29T10:12:39;3.67;;;1.67;;
24801;SDS011;12898;50.520;12.152;2023-07-29T10:15:07;5.25;;;1.63;;
24801;SDS011;12898;50.520;12.152;2023-07-29T10:17:34;2.67;;;1.63;;
24801;SDS011;12898;50.520;12.152;2023-07-29T10:20:03;4.38;;;1.80;;
24801;SDS011;12898;50.520;12.152;2023-07-29T10:22:37;4.00;;;1.92;;
24801;SDS011;12898;50.520;12.152;2023-07-29T10:25:07;5.28;;;1.77;;
24801;SDS011;12898;50.520;12.152;2023-07-29T10:27:55;2.90;;;1.75;;
24801;SDS011;12898;50.520;12.152;2023-07-29T10:30:29;2.55;;;1.60;;
24801;SDS011;12898;50.520;12.152;2023-07-29T10:32:57;3.22;;;1.60;;
24801;SDS011;12898;50.520;12.152;2023-07-29T10:35:27;3.03;;;1.60;;
24801;SDS011;12898;50.520;12.152;2023-07-29T10:37:53;2.92;;;1.50;;
24801;SDS011;12898;50.520;12.152;2023-07-29T10:40:20;4.07;;;1.80;;
24801;SDS011;12898;50.520;12.152;2023-07-29T10:43:02;4.85;;;1.70;;
24801;SDS011;12898;50.520;12.152;2023-07-29T10:45:41;2.30;;;1.45;;
24801;SDS011;12898;50.520;12.152;2023-07-29T10:48:10;4.35;;;1.63;;
24801;SDS011;12898;50.520;12.152;2023-07-29T10:50:37;2.35;;;1.48;;
24801;SDS011;12898;50.520;12.152;2023-07-29T10:53:04;3.15;;;1.48;;
24801;SDS011;12898;50.520;12.152;2023-07-29T10:55:32;4.30;;;1.65;;
24801;SDS011;12898;50.520;12.152;2023-07-29T10:58:10;3.83;;;1.90;;
24801;SDS011;12898;50.520;12.152;2023-07-29T11:00:41;4.63;;;1.70;;
24801;SDS011;12898;50.520;12.152;2023-07-29T11:03:08;2.95;;;1.45;;
24801;SDS011;12898;50.520;12.152;2023-07-29T11:05:45;4.65;;;1.90;;
24801;SDS011;12898;50.520;12.152;2023-07-29T11:08:31;3.13;;;1.40;;
24801;SDS011;12898;50.520;12.152;2023-07-29T11:11:07;3.97;;;1.20;;
24801;SDS011;12898;50.520;12.152;2023-07-29T11:13:37;4.45;;;1.40;;
24801;SDS011;12898;50.520;12.152;2023-07-29T11:16:04;4.18;;;1.40;;
24801;SDS011;12898;50.520;12.152;2023-07-29T11:18:31;4.22;;;1.50;;
24801;SDS011;12898;50.520;12.152;2023-07-29T11:20:59;6.90;;;1.30;;
24801;SDS011;12898;50.520;12.152;2023-07-29T11:23:35;2.03;;;1.10;;
24801;SDS011;12898;50.520;12.152;2023-07-29T11:26:03;5.55;;;1.23;;
24801;SDS011;12898;50.520;12.152;2023-07-29T11:28:29;2.78;;;1.08;;
24801;SDS011;12898;50.520;12.152;2023-07-29T11:30:55;5.30;;;1.40;;
24801;SDS011;12898;50.520;12.152;2023-07-29T11:33:23;3.13;;;1.13;;
24801;SDS011;12898;50.520;12.152;2023-07-29T11:35:53;3.53;;;1.23;;
24801;SDS011;12898;50.520;12.152;2023-07-29T11:38:20;2.20;;;1.45;;
24801;SDS011;12898;50.520;12.152;2023-07-29T11:40:54;5.35;;;1.52;;
24801;SDS011;12898;50.520;12.152;2023-07-29T11:43:25;3.90;;;1.50;;
24801;SDS011;12898;50.520;12.152;2023-07-29T11:45:51;3.65;;;1.98;;
24801;SDS011;12898;50.520;12.152;2023-07-29T11:48:18;2.22;;;1.45;;
24801;SDS011;12898;50.520;12.152;2023-07-29T11:50:55;2.45;;;1.55;;
24801;SDS011;12898;50.520;12.152;2023-07-29T11:53:21;2.67;;;1.33;;
24801;SDS011;12898;50.520;12.152;2023-07-29T11:55:51;1.73;;;1.33;;
24801;SDS011;12898;50.520;12.152;2023-07-29T11:58:18;2.38;;;1.52;;
24801;SDS011;12898;50.520;12.152;2023-07-29T12:00:43;3.15;;;1.30;;
24801;SDS011;12898;50.520;12.152;2023-07-29T12:03:09;3.15;;;1.60;;
24801;SDS011;12898;50.520;12.152;2023-07-29T12:05:36;3.00;;;1.75;;
24801;SDS011;12898;50.520;12.152;2023-07-29T12:08:02;5.07;;;1.77;;
24801;SDS011;12898;50.520;12.152;2023-07-29T12:10:28;2.90;;;2.00;;
24801;SDS011;12898;50.520;12.152;2023-07-29T12:12:54;4.05;;;1.60;;
24801;SDS011;12898;50.520;12.152;2023-07-29T12:15:24;2.47;;;1.70;;
24801;SDS011;12898;50.520;12.152;2023-07-29T12:17:57;2.97;;;1.40;;
24801;SDS011;12898;50.520;12.152;2023-07-29T12:20:25;4.32;;;1.60;;
24801;SDS011;12898;50.520;12.152;2023-07-29T12:22:52;3.70;;;1.42;;
24801;SDS011;12898;50.520;12.152;2023-07-29T12:25:22;2.20;;;1.20;;
24801;SDS011;12898;50.520;12.152;2023-07-29T12:27:48;4.35;;;1.73;;
24801;SDS011;12898;50.520;12.152;2023-07-29T12:30:14;2.53;;;1.35;;
24801;SDS011;12898;50.520;12.152;2023-07-29T12:32:46;3.53;;;1.20;;
24801;SDS011;12898;50.520;12.152;2023-07-29T12:35:12;4.40;;;1.42;;
24801;SDS011;12898;50.520;12.152;2023-07-29T12:37:39;2.08;;;1.23;;
24801;SDS011;12898;50.520;12.152;2023-07-29T12:40:08;1.75;;;1.25;;
24801;SDS011;12898;50.520;12.152;2023-07-29T12:42:54;2.47;;;1.27;;
24801;SDS011;12898;50.520;12.152;2023-07-29T12:45:20;2.00;;;1.48;;
24801;SDS011;12898;50.520;12.152;2023-07-29T12:47:51;2.50;;;1.35;;
24801;SDS011;12898;50.520;12.152;2023-07-29T12:50:16;1.33;;;1.23;;
24801;SDS011;12898;50.520;12.152;2023-07-29T12:52:42;1.70;;;1.15;;
24801;SDS011;12898;50.520;12.152;2023-07-29T12:55:08;8.45;;;1.50;;
24801;SDS011;12898;50.520;12.152;2023-07-29T12:57:37;4.05;;;1.30;;
24801;SDS011;12898;50.520;12.152;2023-07-29T13:00:08;2.97;;;1.20;;
24801;SDS011;12898;50.520;12.152;2023-07-29T13:02:35;1.85;;;1.38;;
24801;SDS011;12898;50.520;12.152;2023-07-29T13:05:00;4.80;;;1.45;;
24801;SDS011;12898;50.520;12.152;2023-07-29T13:07:26;3.85;;;1.77;;
24801;SDS011;12898;50.520;12.152;2023-07-29T13:09:51;1.73;;;1.30;;
24801;SDS011;12898;50.520;12.152;2023-07-29T13:12:17;2.35;;;1.30;;
24801;SDS011;12898;50.520;12.152;2023-07-29T13:14:43;1.23;;;1.13;;
24801;SDS011;12898;50.520;12.152;2023-07-29T13:17:08;1.80;;;1.23;;
24801;SDS011;12898;50.520;12.152;2023-07-29T13:19:34;2.53;;;1.40;;
24801;SDS011;12898;50.520;12.152;2023-07-29T13:22:00;2.53;;;1.10;;
24801;SDS011;12898;50.520;12.152;2023-07-29T13:24:27;2.88;;;1.20;;
24801;SDS011;12898;50.520;12.152;2023-07-29T13:26:52;1.88;;;1.10;;
24801;SDS011;12898;50.520;12.152;2023-07-29T13:29:18;2.72;;;1.20;;
24801;SDS011;12898;50.520;12.152;2023-07-29T13:31:44;2.25;;;1.40;;
24801;SDS011;12898;50.520;12.152;2023-07-29T13:34:10;4.93;;;1.33;;
24801;SDS011;12898;50.520;12.152;2023-07-29T13:36:36;2.72;;;1.15;;
24801;SDS011;12898;50.520;12.152;2023-07-29T13:39:01;1.92;;;1.30;;
24801;SDS011;12898;50.520;12.152;2023-07-29T13:41:27;1.73;;;1.10;;
24801;SDS011;12898;50.520;12.152;2023-07-29T13:43:53;1.73;;;1.00;;
24801;SDS011;12898;50.520;12.152;2023-07-29T13:46:19;1.55;;;0.98;;
24801;SDS011;12898;50.520;12.152;2023-07-29T13:48:46;1.45;;;1.10;;
24801;SDS011;12898;50.520;12.152;2023-07-29T13:51:12;1.30;;;1.17;;
24801;SDS011;12898;50.520;12.152;2023-07-29T13:53:37;1.42;;;1.27;;
24801;SDS011;12898;50.520;12.152;2023-07-29T13:56:04;2.80;;;1.27;;
24801;SDS011;12898;50.520;12.152;2023-07-29T13:58:30;1.50;;;1.23;;
24801;SDS011;12898;50.520;12.152;2023-07-29T14:00:55;4.03;;;1.40;;
24801;SDS011;12898;50.520;12.152;2023-07-29T14:03:21;2.95;;;1.30;;
24801;SDS011;12898;50.520;12.152;2023-07-29T14:05:47;1.92;;;1.20;;
24801;SDS011;12898;50.520;12.152;2023-07-29T14:08:12;1.35;;;0.95;;
24801;SDS011;12898;50.520;12.152;2023-07-29T14:10:38;2.65;;;1.20;;
24801;SDS011;12898;50.520;12.152;2023-07-29T14:13:04;2.17;;;1.20;;
24801;SDS011;12898;50.520;12.152;2023-07-29T14:15:29;1.20;;;1.10;;
24801;SDS011;12898;50.520;12.152;2023-07-29T14:17:57;1.65;;;1.10;;
24801;SDS011;12898;50.520;12.152;2023-07-29T14:20:23;1.25;;;1.00;;
24801;SDS011;12898;50.520;12.152;2023-07-29T14:22:49;1.33;;;1.13;;
24801;SDS011;12898;50.520;12.152;2023-07-29T14:25:14;1.95;;;1.35;;
24801;SDS011;12898;50.520;12.152;2023-07-29T14:27:40;1.27;;;1.10;;
24801;SDS011;12898;50.520;12.152;2023-07-29T14:30:06;2.03;;;1.40;;
24801;SDS011;12898;50.520;12.152;2023-07-29T14:32:32;1.80;;;1.20;;
24801;SDS011;12898;50.520;12.152;2023-07-29T14:34:58;2.65;;;1.20;;
24801;SDS011;12898;50.520;12.152;2023-07-29T14:37:28;1.30;;;1.20;;
24801;SDS011;12898;50.520;12.152;2023-07-29T14:39:57;1.02;;;0.93;;
24801;SDS011;12898;50.520;12.152;2023-07-29T14:42:23;2.55;;;1.33;;